Terminal Aerodrome Forecast
Issued by NWS Wichita, KS

Home | Current Version | Previous Version | Text Only | Print | Product List | Glossary On
Versions: 1 2 3 4 5 6 7 8 9 10 11 12 13 14 15 16 17 18 19 20 21 22 23 24 25 26 27 28 29
000
FTUS43 KICT 250347 AAC
TAFICT
TAF AMD
KICT 250347Z 2504/2524 14013KT P6SM VCTS SCT040CB BKN090
      TEMPO 2504/2508 VRB20G40KT 3SM +TSRA OVC020CB
     FM250800 15014G20KT P6SM VCTS BKN020CB
     FM251600 17018G26KT P6SM BKN035=

USA.gov is the U.S. government's official web portal to all federal, state and local government web resources and services.